EVRA Airport Information

Runway Information
Runway 18 Length 10499 ft width 148 ft Elevation 31 ft Threshold N/A Heading 185
Runway 36 Length 10499 ft Width 148 ft Elevation 37 ft Threshold N/A Heading 5
Airport Frequencies
Type APP Name APP Frequency 129.925 MHZ
Type ATIS Name ATIS Frequency 121.2 MHZ
Type MISC Name Riga Apron Frequency 131.6 MHZ
Type TWR Name TWR Frequency 118.1 MHZ
Type GND Name Riga Groun Frequency 118.8 MHZ
Airport Navaids
Type VOR-DME Name Riga Frequency 112050 KHZ
Type VOR-DME Name Riga Frequency 113700 KHZ
Airport Weather Information & NOTAM
ADDS - METARS form results

(1922 UTC 03 December 2022)
Data provider http://aviationweather.gov/metar/data/
 
METAR text: EVRA 031920Z 10003KT 070V130 8000 SCT006 M07/M08 Q1033 NOSIG
Conditions at: EVRA (RIGA AIRPORT , LV) observed 1920 UTC 03 December 2022
Temperature: -7.0°C (19°F)
Dewpoint: -8.0°C (18°F) [RH = 93%]
Pressure (altimeter): 30.50 inches Hg (1033.0 mb)
Winds: from the E (100 degrees) at 3 MPH (3 knots; 1.5 m/s)
Visibility: 5 miles ( 8 km)
Ceiling: at least 12,000 feet AGL
Clouds: scattered clouds at 600 feet AGL
Weather: no significant weather observed at this time

METAR text: EVRA 031850Z VRB02KT 9000 SCT006 BKN008 M07/M08 Q1033 NOSIG
Conditions at: EVRA (RIGA AIRPORT , LV) observed 1850 UTC 03 December 2022
Temperature: -7.0°C (19°F)
Dewpoint: -8.0°C (18°F) [RH = 93%]
Pressure (altimeter): 30.50 inches Hg (1033.0 mb)
Winds: variable direction winds at 2 MPH (2 knots; 1.0 m/s)
Visibility: 6 miles ( 9 km)
Ceiling: 800 feet AGL
Clouds: scattered clouds at 600 feet AGL
broken clouds at 800 feet AGL
Weather: no significant weather observed at this time

Forecast for: EVRA (RIGA AIRPORT , LV)
Text: TAF EVRA 031711Z 0318/0418 12006KT 9000 OVC005
Forecast period: 1800 UTC 03 December 2022 to 1800 UTC 04 December 2022
Forecast type: FROM: standard forecast or significant change
Winds: from the ESE (120 degrees) at 7 MPH (6 knots; 3.1 m/s)
Visibility: 6 miles (9 km)
Ceiling: 500 feet AGL
Clouds: overcast cloud deck at 500 feet AGL
Weather: no significant weather forecast for this period
Text: TEMPO 0320/0401 1500 SN
Forecast period: 2000 UTC 03 December 2022 to 0100 UTC 04 December 2022
Forecast type: TEMPORARY: The following changes expected for less than half the time period
Visibility: 0.93 miles (1.50 km)
Ceiling: unknown
Clouds: missing
Weather: SN  (moderate snow)
Text: TEMPO 0401/0415 3000 SN FZDZ OVC012
Forecast period: 0100 to 1500 UTC 04 December 2022
Forecast type: TEMPORARY: The following changes expected for less than half the time period
Visibility: 1.86 miles (2.99 km)
Ceiling: 1200 feet AGL
Clouds: overcast cloud deck at 1200 feet AGL
Weather: SN FZDZ  (moderate snow, freezing drizzle)